Share

Arusha, Tanzania

1:09 AM EAT on April 24, 2014 (GMT +0300)
Arusha (IARUSHAA2) Elev 4514 ft | 3.38 °S, 36.64 °E | Change Station

Current weather conditions updated 4 minutes ago

Partly Cloudy
Partly Cloudy
66.1 °F
Feels Like 66.1 °F
N
3.0
Wind Variable Wind from East
Gusts 9.0 mph
Sunrise 6:31 AM
Sunset 6:31 PM
Moon Waning Crescent

Today is forecast to be nearly the same temperature as yesterday. Showers and thunderstorms.

Pressure 30.09 in
Visibility 6.2 miles
Clouds Few 2000 ft
Dew Point 64 °F
Humidity 91%
Rainfall 0.00 in
Snow Depth Not available.
UV 0.0 out of 16
Pollen Not available.
Air Quality Not available.
Flu Activity Not available.
METAR HTAR 232100Z 09015KT 9999 FEW020 19/17 Q1019

More Conditions Fewer Conditions

Pressure 30.09 in
Visibility 6.2 miles
Clouds Few 2000 ft
Dew Point 64 °F
Humidity 91%
Rainfall 0.00 in
Snow Depth Not available.
UV 0.0 out of 16
Pollen Not available.
Air Quality Not available.
Flu Activity Not available.
METAR HTAR 232100Z 09015KT 9999 FEW020 19/17 Q1019

More Conditions Fewer Conditions

10-Day Weather Forecast

Almanac

Astronomy

Apr. 24, 2014 Rise Set
Actual Time 6:31 AM EAT 6:31 PM EAT
Civil Twilight 6:10 AM EAT 6:53 PM EAT
Nautical Twilight 5:45 AM EAT 7:17 PM EAT
Astronomical Twilight 5:20 AM EAT 7:42 PM EAT
Moon 2:08 AM EAT (4/24) 2:37 PM EAT (4/24)
Length of Visible Light 12h 43m
Length of Day
12h 00m
Tomorrow will be 0m 9s shorter.
Waning Crescent, 32% of the Moon is Illuminated
Apr 23
Waning Crescent
Apr 29
New
May 6
First Quarter
May 14
Full
May 21
Last Quarter

Yesterday's Extremes

Country Highs Country Lows

Community

  • Stunning Sunrise
    Stunning Sunrise
  • spring flowers
    spring flowers
  • Earth Day Spectrum Ove' Blue
    Earth Day Spectrum Ove' Blue
  • BARN B&W
    BARN B&W
  • FROM OUT OF DAWN THIS MORNING/
    FROM OUT OF DAWN THIS MORNING/

WunderPhotos

Upload Photos

1,704,424 photos uploaded!

WunderBlogs® & News

Nearby

Snow Depth

Not available.

Coastal Water Temperatures

Place Temperature
No Stations Reporting

Earthquake Activity

City Distance Mag. Time & Date
No recent earthquake activity has been reported nearby.
Minimum magnitude displayed is 2.5.

Nearby Weather Stations

Station Location Temp. Dew Point Humidity Wind Precip. Elev Updated Type
Arusha, Arusha 66.1 °F 64 °F 91% East  at  3.0 mph 0.00 in / hr 4514 ft 1:05 AM EAT Normal

Show More Stations Show Fewer Stations

What do you think?

We're not finished. Please let us know what you like, what you don't like, and what you are still missing.